sensor_id;sensor_type;location;lat;lon;timestamp;temperature;humidity
81383;DHT22;70834;37.534;-122.308;2023-12-20T00:01:06;18.90;79.10
81383;DHT22;70834;37.534;-122.308;2023-12-20T00:03:28;19.00;79.50
81383;DHT22;70834;37.534;-122.308;2023-12-20T00:05:49;19.00;79.30
81383;DHT22;70834;37.534;-122.308;2023-12-20T00:08:10;19.00;78.80
81383;DHT22;70834;37.534;-122.308;2023-12-20T00:10:31;19.00;77.60
81383;DHT22;70834;37.534;-122.308;2023-12-20T00:12:52;19.00;77.00
81383;DHT22;70834;37.534;-122.308;2023-12-20T00:15:13;19.00;76.50
81383;DHT22;70834;37.534;-122.308;2023-12-20T00:17:34;18.90;77.10
81383;DHT22;70834;37.534;-122.308;2023-12-20T00:19:55;18.90;76.60
81383;DHT22;70834;37.534;-122.308;2023-12-20T00:22:16;18.90;76.60
81383;DHT22;70834;37.534;-122.308;2023-12-20T00:24:37;18.90;76.60
81383;DHT22;70834;37.534;-122.308;2023-12-20T00:26:58;18.80;77.50
81383;DHT22;70834;37.534;-122.308;2023-12-20T00:29:19;18.80;77.20
81383;DHT22;70834;37.534;-122.308;2023-12-20T00:31:40;18.70;77.30
81383;DHT22;70834;37.534;-122.308;2023-12-20T00:34:01;18.70;77.60
81383;DHT22;70834;37.534;-122.308;2023-12-20T00:36:22;18.60;76.10
81383;DHT22;70834;37.534;-122.308;2023-12-20T00:38:43;18.70;74.70
81383;DHT22;70834;37.534;-122.308;2023-12-20T00:41:04;18.60;75.60
81383;DHT22;70834;37.534;-122.308;2023-12-20T00:43:25;18.50;76.70
81383;DHT22;70834;37.534;-122.308;2023-12-20T00:45:47;18.40;77.60
81383;DHT22;70834;37.534;-122.308;2023-12-20T00:48:08;18.40;77.60
81383;DHT22;70834;37.534;-122.308;2023-12-20T00:50:29;18.30;78.00
81383;DHT22;70834;37.534;-122.308;2023-12-20T00:52:50;18.30;78.20
81383;DHT22;70834;37.534;-122.308;2023-12-20T00:55:11;18.30;78.50
81383;DHT22;70834;37.534;-122.308;2023-12-20T00:57:32;18.30;78.80
81383;DHT22;70834;37.534;-122.308;2023-12-20T00:59:53;18.30;79.30
81383;DHT22;70834;37.534;-122.308;2023-12-20T01:02:14;18.20;79.60
81383;DHT22;70834;37.534;-122.308;2023-12-20T01:04:35;18.20;79.40
81383;DHT22;70834;37.534;-122.308;2023-12-20T01:06:56;18.20;79.50
81383;DHT22;70834;37.534;-122.308;2023-12-20T01:09:17;18.20;79.90
81383;DHT22;70834;37.534;-122.308;2023-12-20T01:11:39;18.20;79.00
81383;DHT22;70834;37.534;-122.308;2023-12-20T01:14:00;18.20;77.70
81383;DHT22;70834;37.534;-122.308;2023-12-20T01:16:21;18.20;78.40
81383;DHT22;70834;37.534;-122.308;2023-12-20T01:18:42;18.20;78.80
81383;DHT22;70834;37.534;-122.308;2023-12-20T01:21:03;18.20;78.90
81383;DHT22;70834;37.534;-122.308;2023-12-20T01:23:24;18.20;78.40
81383;DHT22;70834;37.534;-122.308;2023-12-20T01:25:45;18.10;78.60
81383;DHT22;70834;37.534;-122.308;2023-12-20T01:28:06;18.10;78.40
81383;DHT22;70834;37.534;-122.308;2023-12-20T01:30:27;18.10;78.10
81383;DHT22;70834;37.534;-122.308;2023-12-20T01:32:48;18.00;78.20
81383;DHT22;70834;37.534;-122.308;2023-12-20T01:35:09;18.00;78.60
81383;DHT22;70834;37.534;-122.308;2023-12-20T01:37:30;18.00;79.10
81383;DHT22;70834;37.534;-122.308;2023-12-20T01:39:51;18.00;78.80
81383;DHT22;70834;37.534;-122.308;2023-12-20T01:42:12;18.00;79.00
81383;DHT22;70834;37.534;-122.308;2023-12-20T01:44:33;18.00;78.60
81383;DHT22;70834;37.534;-122.308;2023-12-20T01:46:54;18.00;79.00
81383;DHT22;70834;37.534;-122.308;2023-12-20T01:49:15;18.00;79.40
81383;DHT22;70834;37.534;-122.308;2023-12-20T01:51:37;18.00;79.50
81383;DHT22;70834;37.534;-122.308;2023-12-20T01:53:58;18.00;79.70
81383;DHT22;70834;37.534;-122.308;2023-12-20T01:56:20;17.90;78.60
81383;DHT22;70834;37.534;-122.308;2023-12-20T01:58:43;17.90;79.00
81383;DHT22;70834;37.534;-122.308;2023-12-20T02:01:05;17.90;79.50
81383;DHT22;70834;37.534;-122.308;2023-12-20T02:03:26;17.90;79.90
81383;DHT22;70834;37.534;-122.308;2023-12-20T02:05:47;17.90;79.90
81383;DHT22;70834;37.534;-122.308;2023-12-20T02:08:08;17.90;79.30
81383;DHT22;70834;37.534;-122.308;2023-12-20T02:10:29;17.90;79.50
81383;DHT22;70834;37.534;-122.308;2023-12-20T02:12:50;17.80;79.40
81383;DHT22;70834;37.534;-122.308;2023-12-20T02:15:12;17.80;79.60
81383;DHT22;70834;37.534;-122.308;2023-12-20T02:17:33;17.80;79.20
81383;DHT22;70834;37.534;-122.308;2023-12-20T02:19:54;17.70;78.40
81383;DHT22;70834;37.534;-122.308;2023-12-20T02:22:15;17.70;79.00
81383;DHT22;70834;37.534;-122.308;2023-12-20T02:24:36;17.60;79.40
81383;DHT22;70834;37.534;-122.308;2023-12-20T02:26:58;17.60;79.70
81383;DHT22;70834;37.534;-122.308;2023-12-20T02:29:19;17.50;79.70
81383;DHT22;70834;37.534;-122.308;2023-12-20T02:31:40;17.50;79.30
81383;DHT22;70834;37.534;-122.308;2023-12-20T02:34:01;17.40;79.60
81383;DHT22;70834;37.534;-122.308;2023-12-20T02:36:22;17.40;79.70
81383;DHT22;70834;37.534;-122.308;2023-12-20T02:38:43;17.30;79.20
81383;DHT22;70834;37.534;-122.308;2023-12-20T02:41:04;17.30;79.60
81383;DHT22;70834;37.534;-122.308;2023-12-20T02:43:25;17.20;79.90
81383;DHT22;70834;37.534;-122.308;2023-12-20T02:45:46;17.20;80.20
81383;DHT22;70834;37.534;-122.308;2023-12-20T02:48:08;17.10;80.10
81383;DHT22;70834;37.534;-122.308;2023-12-20T02:50:29;17.10;80.10
81383;DHT22;70834;37.534;-122.308;2023-12-20T02:52:50;17.10;80.00
81383;DHT22;70834;37.534;-122.308;2023-12-20T02:55:11;17.00;80.00
81383;DHT22;70834;37.534;-122.308;2023-12-20T02:57:32;17.00;80.00
81383;DHT22;70834;37.534;-122.308;2023-12-20T02:59:54;17.00;79.90
81383;DHT22;70834;37.534;-122.308;2023-12-20T03:02:15;17.00;79.80
81383;DHT22;70834;37.534;-122.308;2023-12-20T03:04:36;17.00;80.00
81383;DHT22;70834;37.534;-122.308;2023-12-20T03:06:57;16.90;80.00
81383;DHT22;70834;37.534;-122.308;2023-12-20T03:09:18;16.90;80.30
81383;DHT22;70834;37.534;-122.308;2023-12-20T03:11:39;16.90;80.50
81383;DHT22;70834;37.534;-122.308;2023-12-20T03:14:00;16.90;79.80
81383;DHT22;70834;37.534;-122.308;2023-12-20T03:16:21;16.90;79.60
81383;DHT22;70834;37.534;-122.308;2023-12-20T03:18:42;16.90;80.10
81383;DHT22;70834;37.534;-122.308;2023-12-20T03:21:06;17.10;78.30
81383;DHT22;70834;37.534;-122.308;2023-12-20T03:23:27;17.00;78.70
81383;DHT22;70834;37.534;-122.308;2023-12-20T03:25:48;16.90;79.60
81383;DHT22;70834;37.534;-122.308;2023-12-20T03:28:09;16.90;80.00
81383;DHT22;70834;37.534;-122.308;2023-12-20T03:30:30;16.80;80.10
81383;DHT22;70834;37.534;-122.308;2023-12-20T03:32:52;16.80;80.60
81383;DHT22;70834;37.534;-122.308;2023-12-20T03:35:13;16.80;80.70
81383;DHT22;70834;37.534;-122.308;2023-12-20T03:37:34;16.80;80.60
81383;DHT22;70834;37.534;-122.308;2023-12-20T03:39:55;16.80;80.70
81383;DHT22;70834;37.534;-122.308;2023-12-20T03:42:16;16.80;81.00
81383;DHT22;70834;37.534;-122.308;2023-12-20T03:44:40;16.80;81.20
81383;DHT22;70834;37.534;-122.308;2023-12-20T03:47:01;16.70;81.40
81383;DHT22;70834;37.534;-122.308;2023-12-20T03:49:22;16.70;81.40
81383;DHT22;70834;37.534;-122.308;2023-12-20T03:51:43;16.70;81.70
81383;DHT22;70834;37.534;-122.308;2023-12-20T03:54:05;16.70;81.80
81383;DHT22;70834;37.534;-122.308;2023-12-20T03:56:26;16.70;82.00
81383;DHT22;70834;37.534;-122.308;2023-12-20T03:58:47;16.70;82.10
81383;DHT22;70834;37.534;-122.308;2023-12-20T04:01:11;16.70;82.20
81383;DHT22;70834;37.534;-122.308;2023-12-20T04:03:32;16.70;82.30
81383;DHT22;70834;37.534;-122.308;2023-12-20T04:05:53;16.70;81.90
81383;DHT22;70834;37.534;-122.308;2023-12-20T04:08:14;16.70;82.00
81383;DHT22;70834;37.534;-122.308;2023-12-20T04:10:36;16.70;82.20
81383;DHT22;70834;37.534;-122.308;2023-12-20T04:12:57;16.70;82.40
81383;DHT22;70834;37.534;-122.308;2023-12-20T04:15:19;16.70;82.20
81383;DHT22;70834;37.534;-122.308;2023-12-20T04:17:40;16.70;82.10
81383;DHT22;70834;37.534;-122.308;2023-12-20T04:20:01;16.70;82.00
81383;DHT22;70834;37.534;-122.308;2023-12-20T04:22:22;16.70;81.70
81383;DHT22;70834;37.534;-122.308;2023-12-20T04:24:44;16.90;80.90
81383;DHT22;70834;37.534;-122.308;2023-12-20T04:27:05;17.10;79.90
81383;DHT22;70834;37.534;-122.308;2023-12-20T04:29:26;16.90;80.90
81383;DHT22;70834;37.534;-122.308;2023-12-20T04:31:47;16.80;81.80
81383;DHT22;70834;37.534;-122.308;2023-12-20T04:34:08;16.70;82.30
81383;DHT22;70834;37.534;-122.308;2023-12-20T04:36:29;16.70;82.70
81383;DHT22;70834;37.534;-122.308;2023-12-20T04:38:50;16.70;83.00
81383;DHT22;70834;37.534;-122.308;2023-12-20T04:41:11;16.70;83.40
81383;DHT22;70834;37.534;-122.308;2023-12-20T04:43:36;16.60;83.70
81383;DHT22;70834;37.534;-122.308;2023-12-20T04:45:58;16.60;84.00
81383;DHT22;70834;37.534;-122.308;2023-12-20T04:48:19;16.60;84.30
81383;DHT22;70834;37.534;-122.308;2023-12-20T04:50:40;16.60;84.30
81383;DHT22;70834;37.534;-122.308;2023-12-20T04:53:01;16.60;84.10
81383;DHT22;70834;37.534;-122.308;2023-12-20T04:55:22;16.60;83.60
81383;DHT22;70834;37.534;-122.308;2023-12-20T04:57:43;16.60;83.80
81383;DHT22;70834;37.534;-122.308;2023-12-20T05:00:04;16.70;83.60
81383;DHT22;70834;37.534;-122.308;2023-12-20T05:02:26;16.70;83.70
81383;DHT22;70834;37.534;-122.308;2023-12-20T05:04:47;16.60;84.20
81383;DHT22;70834;37.534;-122.308;2023-12-20T05:07:08;16.70;83.60
81383;DHT22;70834;37.534;-122.308;2023-12-20T05:09:29;16.60;84.00
81383;DHT22;70834;37.534;-122.308;2023-12-20T05:11:50;16.70;84.10
81383;DHT22;70834;37.534;-122.308;2023-12-20T05:14:11;16.70;83.60
81383;DHT22;70834;37.534;-122.308;2023-12-20T05:16:32;16.80;83.30
81383;DHT22;70834;37.534;-122.308;2023-12-20T05:18:53;16.70;83.70
81383;DHT22;70834;37.534;-122.308;2023-12-20T05:21:14;16.80;83.00
81383;DHT22;70834;37.534;-122.308;2023-12-20T05:23:35;16.70;83.70
81383;DHT22;70834;37.534;-122.308;2023-12-20T05:25:56;16.80;83.90
81383;DHT22;70834;37.534;-122.308;2023-12-20T05:28:17;16.80;84.10
81383;DHT22;70834;37.534;-122.308;2023-12-20T05:30:38;16.80;83.90
81383;DHT22;70834;37.534;-122.308;2023-12-20T05:32:59;16.80;84.10
81383;DHT22;70834;37.534;-122.308;2023-12-20T05:35:20;16.70;85.00
81383;DHT22;70834;37.534;-122.308;2023-12-20T05:37:42;16.70;85.40
81383;DHT22;70834;37.534;-122.308;2023-12-20T05:40:04;16.60;85.50
81383;DHT22;70834;37.534;-122.308;2023-12-20T05:42:25;16.60;85.40
81383;DHT22;70834;37.534;-122.308;2023-12-20T05:44:46;16.80;84.60
81383;DHT22;70834;37.534;-122.308;2023-12-20T05:47:07;16.70;85.20
81383;DHT22;70834;37.534;-122.308;2023-12-20T05:49:28;16.60;85.60
81383;DHT22;70834;37.534;-122.308;2023-12-20T05:51:49;16.60;85.80
81383;DHT22;70834;37.534;-122.308;2023-12-20T05:54:11;16.50;86.00
81383;DHT22;70834;37.534;-122.308;2023-12-20T05:56:32;16.50;86.10
81383;DHT22;70834;37.534;-122.308;2023-12-20T05:58:53;16.50;86.20
81383;DHT22;70834;37.534;-122.308;2023-12-20T06:01:14;16.50;86.20
81383;DHT22;70834;37.534;-122.308;2023-12-20T06:03:40;16.50;86.10
81383;DHT22;70834;37.534;-122.308;2023-12-20T06:06:07;16.60;85.20
81383;DHT22;70834;37.534;-122.308;2023-12-20T06:08:28;16.70;84.60
81383;DHT22;70834;37.534;-122.308;2023-12-20T06:10:49;16.60;85.20
81383;DHT22;70834;37.534;-122.308;2023-12-20T06:13:10;16.70;85.00
81383;DHT22;70834;37.534;-122.308;2023-12-20T06:15:33;16.60;85.00
81383;DHT22;70834;37.534;-122.308;2023-12-20T06:17:54;16.60;85.20
81383;DHT22;70834;37.534;-122.308;2023-12-20T06:20:15;16.50;85.80
81383;DHT22;70834;37.534;-122.308;2023-12-20T06:22:36;16.40;86.20
81383;DHT22;70834;37.534;-122.308;2023-12-20T06:24:57;16.40;86.40
81383;DHT22;70834;37.534;-122.308;2023-12-20T06:27:18;16.40;86.10
81383;DHT22;70834;37.534;-122.308;2023-12-20T06:29:39;16.50;86.00
81383;DHT22;70834;37.534;-122.308;2023-12-20T06:32:01;16.50;86.20
81383;DHT22;70834;37.534;-122.308;2023-12-20T06:34:25;16.40;86.30
81383;DHT22;70834;37.534;-122.308;2023-12-20T06:36:46;16.40;86.40
81383;DHT22;70834;37.534;-122.308;2023-12-20T06:39:07;16.40;86.40
81383;DHT22;70834;37.534;-122.308;2023-12-20T06:41:29;16.40;86.40
81383;DHT22;70834;37.534;-122.308;2023-12-20T06:43:50;16.40;86.50
81383;DHT22;70834;37.534;-122.308;2023-12-20T06:46:12;16.40;86.40
81383;DHT22;70834;37.534;-122.308;2023-12-20T06:48:34;16.40;86.90
81383;DHT22;70834;37.534;-122.308;2023-12-20T06:50:55;16.40;86.20
81383;DHT22;70834;37.534;-122.308;2023-12-20T06:53:16;16.40;86.20
81383;DHT22;70834;37.534;-122.308;2023-12-20T06:55:37;16.40;86.30
81383;DHT22;70834;37.534;-122.308;2023-12-20T06:57:58;16.40;86.10
81383;DHT22;70834;37.534;-122.308;2023-12-20T07:00:19;16.50;86.10
81383;DHT22;70834;37.534;-122.308;2023-12-20T07:02:41;16.40;85.90
81383;DHT22;70834;37.534;-122.308;2023-12-20T07:05:02;16.40;85.80
81383;DHT22;70834;37.534;-122.308;2023-12-20T07:07:23;16.40;85.80
81383;DHT22;70834;37.534;-122.308;2023-12-20T07:09:45;16.40;85.90
81383;DHT22;70834;37.534;-122.308;2023-12-20T07:12:06;16.40;86.00
81383;DHT22;70834;37.534;-122.308;2023-12-20T07:14:27;16.40;86.00
81383;DHT22;70834;37.534;-122.308;2023-12-20T07:16:48;16.30;86.00
81383;DHT22;70834;37.534;-122.308;2023-12-20T07:19:09;16.40;86.10
81383;DHT22;70834;37.534;-122.308;2023-12-20T07:21:30;16.30;86.10
81383;DHT22;70834;37.534;-122.308;2023-12-20T07:23:51;16.30;85.90
81383;DHT22;70834;37.534;-122.308;2023-12-20T07:26:12;16.30;85.90
81383;DHT22;70834;37.534;-122.308;2023-12-20T07:28:33;16.30;85.90
81383;DHT22;70834;37.534;-122.308;2023-12-20T07:30:54;16.30;85.90
81383;DHT22;70834;37.534;-122.308;2023-12-20T07:33:15;16.30;85.60
81383;DHT22;70834;37.534;-122.308;2023-12-20T07:35:36;16.40;85.70
81383;DHT22;70834;37.534;-122.308;2023-12-20T07:37:57;16.30;85.70
81383;DHT22;70834;37.534;-122.308;2023-12-20T07:40:19;16.40;85.80
81383;DHT22;70834;37.534;-122.308;2023-12-20T07:42:40;16.40;85.70
81383;DHT22;70834;37.534;-122.308;2023-12-20T07:45:01;16.40;85.50
81383;DHT22;70834;37.534;-122.308;2023-12-20T07:47:22;16.40;85.60
81383;DHT22;70834;37.534;-122.308;2023-12-20T07:49:43;16.40;85.60
81383;DHT22;70834;37.534;-122.308;2023-12-20T07:52:04;16.40;85.40
81383;DHT22;70834;37.534;-122.308;2023-12-20T07:54:25;16.40;85.40
81383;DHT22;70834;37.534;-122.308;2023-12-20T07:56:46;16.40;85.40
81383;DHT22;70834;37.534;-122.308;2023-12-20T07:59:08;16.50;85.50
81383;DHT22;70834;37.534;-122.308;2023-12-20T08:01:29;16.50;85.20
81383;DHT22;70834;37.534;-122.308;2023-12-20T08:03:50;16.50;85.50
81383;DHT22;70834;37.534;-122.308;2023-12-20T08:06:11;16.50;85.50
81383;DHT22;70834;37.534;-122.308;2023-12-20T08:08:32;16.60;85.40
81383;DHT22;70834;37.534;-122.308;2023-12-20T08:10:53;16.60;85.00
81383;DHT22;70834;37.534;-122.308;2023-12-20T08:13:14;16.60;85.40
81383;DHT22;70834;37.534;-122.308;2023-12-20T08:15:36;16.60;85.50
81383;DHT22;70834;37.534;-122.308;2023-12-20T08:17:58;16.50;85.70
81383;DHT22;70834;37.534;-122.308;2023-12-20T08:20:21;16.50;85.90
81383;DHT22;70834;37.534;-122.308;2023-12-20T08:22:42;16.60;86.00
81383;DHT22;70834;37.534;-122.308;2023-12-20T08:25:03;16.60;86.10
81383;DHT22;70834;37.534;-122.308;2023-12-20T08:27:25;16.60;86.10
81383;DHT22;70834;37.534;-122.308;2023-12-20T08:29:46;16.70;85.50
81383;DHT22;70834;37.534;-122.308;2023-12-20T08:32:07;16.70;85.20
81383;DHT22;70834;37.534;-122.308;2023-12-20T08:34:28;16.60;85.80
81383;DHT22;70834;37.534;-122.308;2023-12-20T08:36:53;16.60;85.60
81383;DHT22;70834;37.534;-122.308;2023-12-20T08:39:14;16.60;86.00
81383;DHT22;70834;37.534;-122.308;2023-12-20T08:41:35;16.50;86.30
81383;DHT22;70834;37.534;-122.308;2023-12-20T08:43:57;16.60;85.90
81383;DHT22;70834;37.534;-122.308;2023-12-20T08:46:18;16.60;86.10
81383;DHT22;70834;37.534;-122.308;2023-12-20T08:48:39;16.60;86.10
81383;DHT22;70834;37.534;-122.308;2023-12-20T08:51:00;16.60;85.80
81383;DHT22;70834;37.534;-122.308;2023-12-20T08:53:21;16.60;86.10
81383;DHT22;70834;37.534;-122.308;2023-12-20T08:56:02;16.50;86.30
81383;DHT22;70834;37.534;-122.308;2023-12-20T08:58:23;16.70;85.20
81383;DHT22;70834;37.534;-122.308;2023-12-20T09:00:44;16.70;84.70
81383;DHT22;70834;37.534;-122.308;2023-12-20T09:03:05;16.60;85.20
81383;DHT22;70834;37.534;-122.308;2023-12-20T09:05:27;16.60;85.40
81383;DHT22;70834;37.534;-122.308;2023-12-20T09:07:48;16.50;85.20
81383;DHT22;70834;37.534;-122.308;2023-12-20T09:10:09;16.50;85.50
81383;DHT22;70834;37.534;-122.308;2023-12-20T09:12:30;16.40;85.70
81383;DHT22;70834;37.534;-122.308;2023-12-20T09:14:51;16.40;85.70
81383;DHT22;70834;37.534;-122.308;2023-12-20T09:17:13;16.40;85.90
81383;DHT22;70834;37.534;-122.308;2023-12-20T09:19:34;16.40;86.00
81383;DHT22;70834;37.534;-122.308;2023-12-20T09:21:55;16.40;86.10
81383;DHT22;70834;37.534;-122.308;2023-12-20T09:24:16;16.40;85.70
81383;DHT22;70834;37.534;-122.308;2023-12-20T09:26:37;16.40;86.00
81383;DHT22;70834;37.534;-122.308;2023-12-20T09:29:00;16.40;86.80
81383;DHT22;70834;37.534;-122.308;2023-12-20T09:31:21;16.50;85.20
81383;DHT22;70834;37.534;-122.308;2023-12-20T09:33:42;16.50;85.40
81383;DHT22;70834;37.534;-122.308;2023-12-20T09:36:03;16.50;85.50
81383;DHT22;70834;37.534;-122.308;2023-12-20T09:38:24;16.50;85.70
81383;DHT22;70834;37.534;-122.308;2023-12-20T09:40:46;16.40;86.00
81383;DHT22;70834;37.534;-122.308;2023-12-20T09:43:15;16.40;86.30
81383;DHT22;70834;37.534;-122.308;2023-12-20T09:45:39;16.50;85.70
81383;DHT22;70834;37.534;-122.308;2023-12-20T09:48:01;16.50;86.20
81383;DHT22;70834;37.534;-122.308;2023-12-20T09:50:25;16.50;85.90
81383;DHT22;70834;37.534;-122.308;2023-12-20T09:52:50;16.40;86.00
81383;DHT22;70834;37.534;-122.308;2023-12-20T09:55:12;16.40;86.40
81383;DHT22;70834;37.534;-122.308;2023-12-20T09:57:33;16.50;86.10
81383;DHT22;70834;37.534;-122.308;2023-12-20T09:59:54;16.70;85.00
81383;DHT22;70834;37.534;-122.308;2023-12-20T10:02:15;16.60;85.50
81383;DHT22;70834;37.534;-122.308;2023-12-20T10:04:38;16.50;86.00
81383;DHT22;70834;37.534;-122.308;2023-12-20T10:07:03;16.60;85.70
81383;DHT22;70834;37.534;-122.308;2023-12-20T10:09:24;16.50;85.80
81383;DHT22;70834;37.534;-122.308;2023-12-20T10:11:45;16.40;86.70
81383;DHT22;70834;37.534;-122.308;2023-12-20T10:14:07;16.40;86.40
81383;DHT22;70834;37.534;-122.308;2023-12-20T10:16:28;16.40;86.80
81383;DHT22;70834;37.534;-122.308;2023-12-20T10:18:49;16.30;87.50
81383;DHT22;70834;37.534;-122.308;2023-12-20T10:21:10;16.30;88.10
81383;DHT22;70834;37.534;-122.308;2023-12-20T10:23:32;16.20;88.10
81383;DHT22;70834;37.534;-122.308;2023-12-20T10:25:56;16.20;88.10
81383;DHT22;70834;37.534;-122.308;2023-12-20T10:28:20;16.30;87.90
81383;DHT22;70834;37.534;-122.308;2023-12-20T10:30:44;16.30;87.80
81383;DHT22;70834;37.534;-122.308;2023-12-20T10:33:08;16.30;88.00
81383;DHT22;70834;37.534;-122.308;2023-12-20T10:35:30;16.20;88.00
81383;DHT22;70834;37.534;-122.308;2023-12-20T10:37:52;16.30;87.10
81383;DHT22;70834;37.534;-122.308;2023-12-20T10:40:16;16.30;86.80
81383;DHT22;70834;37.534;-122.308;2023-12-20T10:42:37;16.30;86.70
81383;DHT22;70834;37.534;-122.308;2023-12-20T10:45:00;16.40;86.60
81383;DHT22;70834;37.534;-122.308;2023-12-20T10:47:21;16.30;86.40
81383;DHT22;70834;37.534;-122.308;2023-12-20T10:49:42;16.40;85.60
81383;DHT22;70834;37.534;-122.308;2023-12-20T10:52:04;16.50;85.40
81383;DHT22;70834;37.534;-122.308;2023-12-20T10:54:26;16.40;85.70
81383;DHT22;70834;37.534;-122.308;2023-12-20T10:56:47;16.30;85.90
81383;DHT22;70834;37.534;-122.308;2023-12-20T10:59:11;16.30;86.40
81383;DHT22;70834;37.534;-122.308;2023-12-20T11:01:32;16.20;86.50
81383;DHT22;70834;37.534;-122.308;2023-12-20T11:03:53;16.30;86.40
81383;DHT22;70834;37.534;-122.308;2023-12-20T11:11:35;16.30;86.00
81383;DHT22;70834;37.534;-122.308;2023-12-20T11:14:00;16.30;86.10
81383;DHT22;70834;37.534;-122.308;2023-12-20T11:16:22;16.20;86.70
81383;DHT22;70834;37.534;-122.308;2023-12-20T11:18:44;16.10;87.20
81383;DHT22;70834;37.534;-122.308;2023-12-20T11:21:05;16.10;87.20
81383;DHT22;70834;37.534;-122.308;2023-12-20T11:23:26;16.10;87.30
81383;DHT22;70834;37.534;-122.308;2023-12-20T11:25:48;16.10;87.50
81383;DHT22;70834;37.534;-122.308;2023-12-20T11:28:10;16.10;87.50
81383;DHT22;70834;37.534;-122.308;2023-12-20T11:30:40;16.10;87.60
81383;DHT22;70834;37.534;-122.308;2023-12-20T11:33:01;16.00;87.70
81383;DHT22;70834;37.534;-122.308;2023-12-20T11:35:22;16.00;87.90
81383;DHT22;70834;37.534;-122.308;2023-12-20T11:37:44;16.00;88.00
81383;DHT22;70834;37.534;-122.308;2023-12-20T11:40:08;16.00;88.00
81383;DHT22;70834;37.534;-122.308;2023-12-20T11:42:38;16.10;87.80
81383;DHT22;70834;37.534;-122.308;2023-12-20T11:45:01;16.20;87.40
81383;DHT22;70834;37.534;-122.308;2023-12-20T11:47:24;16.10;87.40
81383;DHT22;70834;37.534;-122.308;2023-12-20T11:49:48;16.00;87.90
81383;DHT22;70834;37.534;-122.308;2023-12-20T11:52:11;16.10;87.70
81383;DHT22;70834;37.534;-122.308;2023-12-20T11:54:32;16.10;87.60
81383;DHT22;70834;37.534;-122.308;2023-12-20T11:56:53;16.10;88.00
81383;DHT22;70834;37.534;-122.308;2023-12-20T11:59:14;16.10;88.30
81383;DHT22;70834;37.534;-122.308;2023-12-20T12:01:36;16.20;87.50
81383;DHT22;70834;37.534;-122.308;2023-12-20T12:04:03;16.20;87.30
81383;DHT22;70834;37.534;-122.308;2023-12-20T12:06:24;16.10;87.50
81383;DHT22;70834;37.534;-122.308;2023-12-20T12:08:46;16.10;88.00
81383;DHT22;70834;37.534;-122.308;2023-12-20T12:11:07;16.10;88.20
81383;DHT22;70834;37.534;-122.308;2023-12-20T12:13:28;16.10;88.40
81383;DHT22;70834;37.534;-122.308;2023-12-20T12:15:49;16.10;88.50
81383;DHT22;70834;37.534;-122.308;2023-12-20T12:18:11;16.10;88.50
81383;DHT22;70834;37.534;-122.308;2023-12-20T12:20:32;16.10;88.40
81383;DHT22;70834;37.534;-122.308;2023-12-20T12:23:03;16.10;87.50
81383;DHT22;70834;37.534;-122.308;2023-12-20T12:25:24;16.10;86.60
81383;DHT22;70834;37.534;-122.308;2023-12-20T12:27:45;16.00;86.00
81383;DHT22;70834;37.534;-122.308;2023-12-20T12:30:06;16.00;85.30
81383;DHT22;70834;37.534;-122.308;2023-12-20T12:32:28;16.00;85.10
81383;DHT22;70834;37.534;-122.308;2023-12-20T12:34:49;15.90;85.10
81383;DHT22;70834;37.534;-122.308;2023-12-20T12:37:10;15.80;85.30
81383;DHT22;70834;37.534;-122.308;2023-12-20T12:39:31;15.70;85.50
81383;DHT22;70834;37.534;-122.308;2023-12-20T12:41:52;15.70;85.50
81383;DHT22;70834;37.534;-122.308;2023-12-20T12:44:14;15.60;85.60
81383;DHT22;70834;37.534;-122.308;2023-12-20T12:46:35;15.60;85.80
81383;DHT22;70834;37.534;-122.308;2023-12-20T12:48:56;15.50;86.10
81383;DHT22;70834;37.534;-122.308;2023-12-20T12:51:17;15.50;86.30
81383;DHT22;70834;37.534;-122.308;2023-12-20T12:53:38;15.50;86.40
81383;DHT22;70834;37.534;-122.308;2023-12-20T12:55:59;15.40;86.40
81383;DHT22;70834;37.534;-122.308;2023-12-20T12:58:20;15.40;86.70
81383;DHT22;70834;37.534;-122.308;2023-12-20T13:00:41;15.40;86.70
81383;DHT22;70834;37.534;-122.308;2023-12-20T13:03:02;15.40;86.70
81383;DHT22;70834;37.534;-122.308;2023-12-20T13:05:24;15.40;86.70
81383;DHT22;70834;37.534;-122.308;2023-12-20T13:07:45;15.40;86.50
81383;DHT22;70834;37.534;-122.308;2023-12-20T13:10:07;15.40;86.60
81383;DHT22;70834;37.534;-122.308;2023-12-20T13:12:28;15.30;87.40
81383;DHT22;70834;37.534;-122.308;2023-12-20T13:14:50;15.30;88.20
81383;DHT22;70834;37.534;-122.308;2023-12-20T13:17:11;15.30;87.60
81383;DHT22;70834;37.534;-122.308;2023-12-20T13:19:32;15.20;88.00
81383;DHT22;70834;37.534;-122.308;2023-12-20T13:21:53;15.20;88.30
81383;DHT22;70834;37.534;-122.308;2023-12-20T13:24:15;15.10;88.50
81383;DHT22;70834;37.534;-122.308;2023-12-20T13:26:36;15.10;88.00
81383;DHT22;70834;37.534;-122.308;2023-12-20T13:28:57;15.10;87.10
81383;DHT22;70834;37.534;-122.308;2023-12-20T13:31:19;15.10;86.30
81383;DHT22;70834;37.534;-122.308;2023-12-20T13:33:40;15.00;87.30
81383;DHT22;70834;37.534;-122.308;2023-12-20T13:36:02;15.10;86.10
81383;DHT22;70834;37.534;-122.308;2023-12-20T13:38:23;15.00;86.60
81383;DHT22;70834;37.534;-122.308;2023-12-20T13:40:44;14.90;87.90
81383;DHT22;70834;37.534;-122.308;2023-12-20T13:43:05;14.90;88.10
81383;DHT22;70834;37.534;-122.308;2023-12-20T13:45:26;14.80;88.20
81383;DHT22;70834;37.534;-122.308;2023-12-20T13:47:47;14.80;88.80
81383;DHT22;70834;37.534;-122.308;2023-12-20T13:50:08;14.80;89.20
81383;DHT22;70834;37.534;-122.308;2023-12-20T13:52:30;14.70;89.40
81383;DHT22;70834;37.534;-122.308;2023-12-20T13:54:51;14.80;88.70
81383;DHT22;70834;37.534;-122.308;2023-12-20T13:57:12;14.80;87.60
81383;DHT22;70834;37.534;-122.308;2023-12-20T13:59:33;14.70;88.10
81383;DHT22;70834;37.534;-122.308;2023-12-20T14:01:54;14.60;88.20
81383;DHT22;70834;37.534;-122.308;2023-12-20T14:04:15;14.60;88.40
81383;DHT22;70834;37.534;-122.308;2023-12-20T14:06:36;14.60;88.70
81383;DHT22;70834;37.534;-122.308;2023-12-20T14:08:58;14.60;86.20
81383;DHT22;70834;37.534;-122.308;2023-12-20T14:11:20;14.60;85.90
81383;DHT22;70834;37.534;-122.308;2023-12-20T14:13:41;14.50;86.00
81383;DHT22;70834;37.534;-122.308;2023-12-20T14:16:03;14.60;84.50
81383;DHT22;70834;37.534;-122.308;2023-12-20T14:18:25;14.40;85.10